In Rescue
 
Open Full Screen Window  High Contrast Mode
March 19, 2019 7:43 PM EDT
Weather Information
Wind Direction
  ---
Wind Speed
  00 kt (0 mph)
Wind Gust
  00 kt (0 mph)
Altimeter
30.30 in
Visibility
10 SM
Temperature
06° C
43° F
Dewpoint
-09° C
16° F
Humidity
34%
Sky Condition
Clear
VFR

METAR KLWA 192343Z AUTO 00000KT 10SM CLR 06/M09 A3030 RMK AO2 T00581087

FAA Disclaimer: The data displayed is for advisory purposes only and is not to be used for flight planning or operations.